Time;durP1;ratioP1;P1;durP2;ratioP2;P2;SDS_P1;SDS_P2;PMS_P1;PMS_P2;Temp;Humidity;BMP_temperature;BMP_pressure;BME280_temperature;BME280_humidity;BME280_pressure;Samples;Min_cycle;Max_cycle;Signal;HPM_P1;HPM_P2
2023/05/10 00:02:23;;;;;;;0.65;0.50;;;;;;;12.79;50.60;99703.41;5137443;27;20042;-68
2023/05/10 00:04:52;;;;;;;5.72;1.55;;;;;;;12.77;50.96;99705.13;5137383;27;20504;-68
2023/05/10 00:07:21;;;;;;;0.50;0.50;;;;;;;12.81;51.04;99701.72;5137388;27;20047;-68
2023/05/10 00:09:49;;;;;;;0.50;0.50;;;;;;;12.76;51.25;99704.28;5137967;27;20035;-68
2023/05/10 00:12:18;;;;;;;0.60;0.60;;;;;;;12.75;51.58;99702.59;5137606;27;20070;-68
2023/05/10 00:14:49;;;;;;;0.70;0.70;;;;;;;12.69;51.73;99696.69;5137208;27;20498;-68
2023/05/10 00:17:17;;;;;;;0.40;0.40;;;;;;;12.67;52.25;99693.28;5137345;27;20275;-67
2023/05/10 00:19:46;;;;;;;0.33;0.33;;;;;;;12.59;53.22;99690.81;5137224;27;20061;-68
2023/05/10 00:22:16;;;;;;;0.50;0.50;;;;;;;12.65;52.90;99690.75;5137020;27;20047;-67
2023/05/10 00:24:45;;;;;;;2.00;1.23;;;;;;;12.69;52.85;99691.56;5137798;27;20031;-68
2023/05/10 00:27:14;;;;;;;0.80;0.80;;;;;;;12.73;53.08;99685.56;5137052;27;20035;-68
2023/05/10 00:29:43;;;;;;;1.13;0.60;;;;;;;12.72;53.32;99681.28;5137248;27;20038;-68
2023/05/10 00:32:13;;;;;;;0.50;0.50;;;;;;;12.68;53.52;99685.59;5136848;27;20283;-68
2023/05/10 00:34:42;;;;;;;1.05;0.95;;;;;;;12.66;53.77;99686.47;5136816;27;20039;-68
2023/05/10 00:37:13;;;;;;;0.60;0.60;;;;;;;12.69;53.78;99686.44;5136624;27;20051;-68
2023/05/10 00:39:42;;;;;;;0.30;0.30;;;;;;;12.70;54.17;99677.88;5136844;27;20035;-68
2023/05/10 00:42:11;;;;;;;0.45;0.45;;;;;;;12.71;54.12;99684.72;5136758;27;20275;-68
2023/05/10 00:44:42;;;;;;;1.05;1.05;;;;;;;12.41;55.03;99674.72;5136688;27;20050;-67
2023/05/10 00:47:11;;;;;;;0.40;0.40;;;;;;;12.12;56.03;99681.81;5136656;27;20092;-68
2023/05/10 00:49:42;;;;;;;0.43;0.43;;;;;;;11.95;56.91;99679.34;5118603;27;20283;-68
2023/05/10 00:52:12;;;;;;;0.30;0.30;;;;;;;11.66;57.45;99682.03;5136759;27;20057;-68
2023/05/10 00:54:42;;;;;;;0.52;0.52;;;;;;;11.51;58.67;99679.56;5136453;27;20518;-69
2023/05/10 00:57:12;;;;;;;0.50;0.50;;;;;;;11.48;58.96;99674.47;5118438;27;20399;-67
2023/05/10 00:59:41;;;;;;;1.02;0.73;;;;;;;11.35;59.25;99676.22;5118149;27;20054;-68
2023/05/10 01:02:09;;;;;;;1.53;1.20;;;;;;;11.35;59.36;99676.22;5136405;27;20039;-68
2023/05/10 01:04:39;;;;;;;0.50;0.50;;;;;;;11.30;59.73;99677.09;5136367;27;20175;-68
2023/05/10 01:07:10;;;;;;;0.85;0.75;;;;;;;11.28;60.19;99663.47;5117927;27;20054;-68
2023/05/10 01:09:39;;;;;;;0.40;0.40;;;;;;;11.28;60.45;99663.47;5136187;27;20552;-68
2023/05/10 01:12:08;;;;;;;0.60;0.60;;;;;;;11.43;59.80;99658.28;5136099;27;20047;-69
2023/05/10 01:14:38;;;;;;;0.50;0.50;;;;;;;11.56;59.44;99654.84;5117761;27;20114;-68
2023/05/10 01:17:10;;;;;;;0.47;0.47;;;;;;;11.71;59.33;99664.16;5136107;27;20091;-68
2023/05/10 01:19:40;;;;;;;0.40;0.40;;;;;;;11.65;59.58;99654.78;5118126;27;20074;-68
2023/05/10 01:22:30;;;;;;;0.50;0.50;;;;;;;11.74;59.07;99654.75;5136326;27;20070;-67
2023/05/10 01:25:22;;;;;;;0.40;0.40;;;;;;;11.76;59.70;99662.41;5117601;27;20053;-68
2023/05/10 01:28:09;;;;;;;0.35;0.35;;;;;;;11.78;58.86;99653.03;5135857;27;20051;-67
2023/05/10 01:31:03;;;;;;;0.55;0.55;;;;;;;11.85;59.05;99649.59;5117492;27;20047;-68
2023/05/10 01:33:40;;;;;;;0.60;0.60;;;;;;;11.92;58.88;99649.53;5125905;27;20032;-68
2023/05/10 01:36:17;;;;;;;1.00;0.68;;;;;;;11.72;59.45;99651.34;5135765;27;20047;-69
2023/05/10 01:38:51;;;;;;;0.40;0.40;;;;;;;11.59;59.99;99652.22;5135959;27;20039;-67
2023/05/10 01:41:29;;;;;;;0.80;0.77;;;;;;;11.65;59.55;99649.66;5135598;27;20051;-68
2023/05/10 01:44:05;;;;;;;0.63;0.63;;;;;;;11.83;59.47;99639.34;5135815;27;20043;-68
2023/05/10 01:46:38;;;;;;;0.73;0.73;;;;;;;11.91;58.76;99641.84;5117231;27;20039;-68
2023/05/10 01:49:13;;;;;;;0.50;0.50;;;;;;;11.74;59.06;99639.41;5135723;27;20107;-68
2023/05/10 01:51:48;;;;;;;0.95;0.75;;;;;;;11.82;58.90;99627.44;5135395;27;20047;-68
2023/05/10 01:54:20;;;;;;;0.50;0.50;;;;;;;11.93;58.80;99641.00;5135274;27;20099;-68
2023/05/10 01:56:57;;;;;;;0.50;0.50;;;;;;;12.01;58.23;99636.69;5117154;27;20100;-67
2023/05/10 01:59:30;;;;;;;0.60;0.60;;;;;;;12.10;57.99;99639.16;5135515;27;20519;-67
2023/05/10 02:02:02;;;;;;;1.90;0.65;;;;;;;12.14;57.95;99627.19;5135539;27;20096;-67
2023/05/10 02:04:34;;;;;;;0.70;0.70;;;;;;;12.17;57.84;99633.97;5117133;27;20397;-66
2023/05/10 02:07:04;;;;;;;0.77;0.65;;;;;;;12.17;57.88;99633.97;5116905;27;20130;-67
2023/05/10 02:09:34;;;;;;;0.45;0.45;;;;;;;12.15;57.70;99628.03;5135013;27;20046;-67
2023/05/10 02:12:06;;;;;;;0.60;0.60;;;;;;;12.19;57.73;99642.53;5135068;27;20083;-67
2023/05/10 02:14:38;;;;;;;0.80;0.80;;;;;;;12.19;57.72;99639.97;5116701;27;20051;-67
2023/05/10 02:17:10;;;;;;;0.40;0.40;;;;;;;12.22;57.72;99642.47;5135000;27;20085;-68
2023/05/10 02:19:44;;;;;;;0.88;0.85;;;;;;;12.19;57.65;99642.53;5134904;27;20048;-67
2023/05/10 02:22:14;;;;;;;0.40;0.40;;;;;;;12.16;57.97;99632.31;5116085;28;20039;-68
2023/05/10 02:24:45;;;;;;;0.70;0.70;;;;;;;12.17;58.09;99631.41;5135138;27;20051;-68
2023/05/10 02:27:16;;;;;;;29.65;1.33;;;;;;;12.21;57.99;99630.56;5135116;27;20131;-68
2023/05/10 02:29:46;;;;;;;0.63;0.63;;;;;;;12.19;58.19;99632.28;5134810;27;20075;-67
2023/05/10 02:32:18;;;;;;;0.70;0.70;;;;;;;11.95;58.80;99598.34;5135003;27;20451;-66
2023/05/10 02:34:51;;;;;;;0.60;0.60;;;;;;;12.18;59.22;99631.44;5116424;27;20047;-67
2023/05/10 02:37:22;;;;;;;0.52;0.52;;;;;;;12.18;59.56;99638.25;5134477;27;20395;-68
2023/05/10 02:39:53;;;;;;;0.60;0.60;;;;;;;12.19;60.07;99637.41;5116380;27;20040;-69
2023/05/10 02:42:27;;;;;;;0.82;0.70;;;;;;;12.19;60.36;99632.28;5134928;27;20047;-68
2023/05/10 02:45:02;;;;;;;1.17;0.98;;;;;;;12.21;60.60;99638.22;5134534;27;20043;-67
2023/05/10 02:47:32;;;;;;;0.40;0.40;;;;;;;12.18;60.73;99635.69;5134540;28;20583;-67
2023/05/10 02:50:03;;;;;;;0.40;0.40;;;;;;;12.27;60.66;99640.72;5134839;28;20062;-68
2023/05/10 02:52:41;;;;;;;0.40;0.40;;;;;;;12.25;60.65;99624.53;5116273;28;20039;-67
2023/05/10 02:55:16;;;;;;;0.43;0.43;;;;;;;12.21;60.61;99635.69;5134464;28;20043;-68
2023/05/10 02:57:53;;;;;;;1.70;1.13;;;;;;;12.17;60.62;99631.41;5134487;28;20096;-69
2023/05/10 03:00:22;;;;;;;0.70;0.70;;;;;;;12.18;60.81;99633.13;5134405;28;20057;-69
2023/05/10 03:02:51;;;;;;;1.05;1.00;;;;;;;12.13;60.98;99634.88;5134961;28;20031;-68
2023/05/10 03:05:22;;;;;;;0.85;0.85;;;;;;;12.10;60.99;99630.63;5116114;28;20055;-69
2023/05/10 03:07:53;;;;;;;0.40;0.40;;;;;;;12.08;61.15;99628.09;5116313;28;20050;-68
2023/05/10 03:10:28;;;;;;;0.40;0.40;;;;;;;12.04;60.98;99628.97;5134356;28;20145;-69
2023/05/10 03:13:14;;;;;;;0.30;0.30;;;;;;;11.99;61.44;99630.72;5135224;28;20082;-69
2023/05/10 03:15:56;;;;;;;0.40;0.40;;;;;;;11.97;61.61;99632.41;5116021;28;20043;-68
2023/05/10 03:18:35;;;;;;;0.32;0.32;;;;;;;11.96;61.65;99640.13;5115981;28;20043;-68
2023/05/10 03:21:10;;;;;;;0.70;0.70;;;;;;;11.93;61.83;99640.13;5134235;28;20047;-69
2023/05/10 03:23:45;;;;;;;0.88;0.80;;;;;;;11.90;61.90;99635.88;5115940;28;20116;-68
2023/05/10 03:26:21;;;;;;;0.68;0.65;;;;;;;11.91;62.04;99640.16;5134166;28;20051;-68
2023/05/10 03:28:53;;;;;;;0.70;0.65;;;;;;;11.91;62.28;99637.59;5134099;28;20045;-68
2023/05/10 03:31:23;;;;;;;1.15;1.05;;;;;;;11.90;61.81;99641.00;5134133;28;20489;-68
2023/05/10 03:33:53;;;;;;;0.50;0.50;;;;;;;11.88;62.29;99632.50;5115900;28;20126;-68
2023/05/10 03:36:28;;;;;;;0.50;0.50;;;;;;;11.89;62.60;99630.78;5137533;27;20077;-68
2023/05/10 03:38:57;;;;;;;0.50;0.50;;;;;;;11.91;62.44;99637.59;5138007;27;20109;-68
2023/05/10 03:41:27;;;;;;;0.50;0.50;;;;;;;11.87;62.97;99630.81;5138220;27;20044;-68
2023/05/10 03:43:56;;;;;;;1.10;1.05;;;;;;;11.89;62.90;99638.47;5119896;27;20489;-68
2023/05/10 03:46:25;;;;;;;0.40;0.40;;;;;;;11.83;63.31;99631.66;5137792;27;20055;-69
2023/05/10 03:48:54;;;;;;;0.50;0.50;;;;;;;11.83;63.08;99633.41;5119219;27;20776;-68
2023/05/10 03:51:25;;;;;;;0.73;0.73;;;;;;;11.84;63.54;99629.97;5137677;27;20031;-70
2023/05/10 03:53:55;;;;;;;0.60;0.60;;;;;;;11.87;63.22;99640.19;5119442;27;20047;-69
2023/05/10 03:56:25;;;;;;;0.40;0.40;;;;;;;11.93;63.60;99635.03;5137470;27;20481;-68
2023/05/10 03:58:53;;;;;;;0.63;0.63;;;;;;;11.95;63.63;99634.16;5137865;27;20450;-68
2023/05/10 04:01:22;;;;;;;0.40;0.40;;;;;;;11.98;63.70;99646.91;5119141;27;20055;-68
2023/05/10 04:03:51;;;;;;;1.25;1.02;;;;;;;11.98;63.61;99649.47;5119123;27;20088;-69
2023/05/10 04:06:20;;;;;;;1.42;1.33;;;;;;;12.00;63.57;99647.75;5137453;27;20039;-67
2023/05/10 04:08:49;;;;;;;1.10;0.95;;;;;;;11.97;63.82;99637.53;5119073;27;20069;-65
2023/05/10 04:11:21;;;;;;;;;;;;;;;12.07;63.78;99649.41;5119798;27;20042;-68
2023/05/10 04:13:50;;;;;;;0.55;0.55;;;;;;;12.13;63.85;99652.78;5137471;27;19955;-71
2023/05/10 04:16:19;;;;;;;0.70;0.70;;;;;;;12.19;63.67;99647.63;5137192;27;20070;-70
2023/05/10 04:18:48;;;;;;;0.80;0.80;;;;;;;12.28;63.66;99657.78;5119011;27;20138;-70
2023/05/10 04:21:17;;;;;;;0.40;0.40;;;;;;;12.34;63.68;99648.34;5137260;27;20058;-68
2023/05/10 04:23:46;;;;;;;0.40;0.40;;;;;;;12.39;63.63;99653.44;5137473;27;20336;-69
2023/05/10 04:26:14;;;;;;;0.57;0.57;;;;;;;12.46;63.44;99657.63;5137955;27;20047;-69
2023/05/10 04:28:45;;;;;;;0.40;0.40;;;;;;;12.47;63.37;99659.34;5137084;27;20047;-70
2023/05/10 04:31:14;;;;;;;1.20;1.10;;;;;;;12.45;63.39;99650.81;5137080;27;20096;-69
2023/05/10 04:33:43;;;;;;;0.50;0.50;;;;;;;12.53;63.29;99654.16;5137178;27;20451;-69
2023/05/10 04:36:13;;;;;;;0.73;0.73;;;;;;;12.69;62.82;99663.41;5136508;27;20567;-68
2023/05/10 04:38:42;;;;;;;0.98;0.88;;;;;;;12.82;62.72;99662.41;5136761;27;20043;-70
2023/05/10 04:41:12;;;;;;;0.40;0.40;;;;;;;12.93;62.54;99660.59;5136986;27;20389;-69
2023/05/10 04:43:41;;;;;;;0.47;0.47;;;;;;;13.01;62.27;99663.91;5118488;27;20554;-69
2023/05/10 04:46:11;;;;;;;0.73;0.70;;;;;;;13.04;61.86;99663.88;5136234;27;20039;-68
2023/05/10 04:48:40;;;;;;;0.65;0.65;;;;;;;13.12;61.92;99662.13;5137019;27;20043;-68
2023/05/10 04:51:08;;;;;;;1.50;1.27;;;;;;;13.28;61.41;99668.75;5136856;27;20031;-70
2023/05/10 04:53:37;;;;;;;0.70;0.70;;;;;;;13.38;61.24;99674.63;5136827;27;20039;-69
2023/05/10 04:56:07;;;;;;;2.03;1.10;;;;;;;13.42;61.22;99671.16;5136361;27;20066;-68
2023/05/10 04:58:37;;;;;;;0.60;0.60;;;;;;;13.37;60.96;99671.22;5136397;27;20097;-69
2023/05/10 05:01:08;;;;;;;0.68;0.68;;;;;;;13.34;61.00;99676.38;5136284;27;20557;-70
2023/05/10 05:03:38;;;;;;;0.50;0.50;;;;;;;13.47;61.23;99673.66;5136945;27;20039;-70
2023/05/10 05:06:08;;;;;;;0.50;0.50;;;;;;;13.56;60.96;99674.38;5136627;27;20126;-71
2023/05/10 05:08:36;;;;;;;0.30;0.30;;;;;;;13.66;60.40;99673.41;5136466;27;20137;-71
2023/05/10 05:11:05;;;;;;;0.73;0.73;;;;;;;13.70;60.21;99674.22;5136097;27;20050;-71
2023/05/10 05:13:34;;;;;;;0.50;0.50;;;;;;;13.87;60.16;99664.56;5136067;27;20075;-71
2023/05/10 05:16:03;;;;;;;0.40;0.40;;;;;;;13.97;59.73;99676.38;5135932;27;20283;-72
2023/05/10 05:18:32;;;;;;;0.50;0.50;;;;;;;13.91;59.36;99674.78;5136008;27;20054;-71
2023/05/10 05:21:03;;;;;;;0.30;0.30;;;;;;;13.95;59.35;99667.88;5136293;27;20133;-69
2023/05/10 05:23:32;;;;;;;0.55;0.55;;;;;;;14.06;58.94;99676.25;5135934;27;20047;-69
2023/05/10 05:26:01;;;;;;;0.60;0.60;;;;;;;14.19;58.68;99677.78;5135932;27;20388;-71
2023/05/10 05:28:32;;;;;;;0.47;0.47;;;;;;;14.34;58.20;99675.00;5135892;27;20070;-69
2023/05/10 05:31:01;;;;;;;1.45;1.35;;;;;;;14.42;57.57;99664.63;5135791;27;20047;-70
2023/05/10 05:33:30;;;;;;;2.42;0.70;;;;;;;14.55;57.82;99666.94;5135798;27;20039;-70
2023/05/10 05:36:01;;;;;;;;;;;;;;;14.78;57.38;99672.50;5136026;27;20515;-70
2023/05/10 05:38:31;;;;;;;0.88;0.85;;;;;;;14.76;56.99;99678.56;5135977;27;20288;-72
2023/05/10 05:41:00;;;;;;;0.60;0.60;;;;;;;14.89;56.79;99677.47;5135885;27;20051;-71
2023/05/10 05:43:29;;;;;;;0.80;0.80;;;;;;;14.99;56.89;99683.28;5135529;27;20045;-70
2023/05/10 05:45:58;;;;;;;0.50;0.50;;;;;;;15.05;56.27;99678.88;5135756;27;20446;-70
2023/05/10 05:48:27;;;;;;;1.70;1.20;;;;;;;15.19;55.93;99681.16;5135497;27;20130;-70
2023/05/10 05:50:57;;;;;;;0.50;0.50;;;;;;;15.02;55.80;99671.22;5135465;27;20493;-70
2023/05/10 05:53:25;;;;;;;;;;;;;;;15.14;55.52;99690.72;5136042;27;20523;-71
2023/05/10 05:55:57;;;;;;;0.70;0.70;;;;;;;15.14;55.34;99688.16;5135180;27;19919;-70
2023/05/10 05:58:26;;;;;;;0.93;0.93;;;;;;;15.21;55.09;99689.72;5134486;27;20054;-71
2023/05/10 06:00:55;;;;;;;0.50;0.50;;;;;;;15.26;55.93;99687.91;5134833;27;20043;-70
2023/05/10 06:03:24;;;;;;;0.67;0.67;;;;;;;15.40;55.44;99685.91;5134860;27;20068;-70
2023/05/10 06:05:53;;;;;;;0.60;0.60;;;;;;;15.49;54.80;99690.03;5135176;27;20055;-70
2023/05/10 06:08:22;;;;;;;2.55;0.75;;;;;;;15.45;54.69;99691.84;5135066;27;20220;-71
2023/05/10 06:10:51;;;;;;;0.40;0.40;;;;;;;15.45;54.83;99689.28;5134998;27;20084;-71
2023/05/10 06:13:21;;;;;;;0.65;0.65;;;;;;;15.28;54.63;99691.31;5116714;27;20531;-70
2023/05/10 06:15:50;;;;;;;0.90;0.82;;;;;;;15.25;54.48;99693.94;5134865;27;20096;-74
2023/05/10 06:18:19;;;;;;;0.40;0.40;;;;;;;15.23;54.87;99699.09;5134906;27;20092;-69
2023/05/10 06:20:48;;;;;;;2.33;1.48;;;;;;;15.31;54.55;99699.78;5134808;27;20038;-70
2023/05/10 06:23:17;;;;;;;0.60;0.60;;;;;;;15.50;54.81;99697.72;5134759;27;20043;-70
2023/05/10 06:25:46;;;;;;;0.52;0.52;;;;;;;15.66;54.09;99696.56;5134844;27;20092;-72
2023/05/10 06:28:15;;;;;;;1.43;1.23;;;;;;;15.79;53.84;99695.41;5134683;27;20053;-70
2023/05/10 06:30:46;;;;;;;0.50;0.50;;;;;;;15.87;54.05;99703.81;5135034;27;20043;-69
2023/05/10 06:33:15;;;;;;;0.80;0.80;;;;;;;15.76;54.20;99700.63;5134631;27;20043;-71
2023/05/10 06:35:44;;;;;;;2.50;0.60;;;;;;;15.77;54.28;99701.44;5134688;27;20120;-71
2023/05/10 06:38:13;;;;;;;2.20;1.35;;;;;;;15.70;53.42;99700.75;5134637;27;20408;-69
2023/05/10 06:40:43;;;;;;;0.47;0.47;;;;;;;15.50;53.90;99695.16;5134622;27;20043;-70
2023/05/10 06:43:11;;;;;;;;;;;;;;;15.42;54.25;99699.59;5135087;27;20114;-69
2023/05/10 06:45:40;;;;;;;5.18;0.85;;;;;;;15.38;54.33;99697.94;5134454;27;19923;-71
2023/05/10 06:48:10;;;;;;;0.80;0.80;;;;;;;15.46;54.10;99696.09;5134889;28;20043;-70
2023/05/10 06:50:39;;;;;;;0.75;0.70;;;;;;;15.46;54.85;99692.69;5134760;28;20070;-69
2023/05/10 06:53:08;;;;;;;0.50;0.50;;;;;;;15.51;54.96;99689.13;5134382;28;20115;-69
2023/05/10 06:55:37;;;;;;;0.82;0.82;;;;;;;15.81;53.95;99688.47;5134315;28;20039;-70
2023/05/10 06:58:06;;;;;;;0.80;0.80;;;;;;;15.90;53.36;99688.31;5134227;28;20121;-69
2023/05/10 07:00:38;;;;;;;1.13;0.73;;;;;;;16.07;53.26;99682.78;5134314;28;20050;-69
2023/05/10 07:03:08;;;;;;;0.73;0.73;;;;;;;16.13;53.51;99689.50;5134678;28;20275;-71
2023/05/10 07:05:38;;;;;;;0.40;0.40;;;;;;;16.12;52.78;99685.25;5134701;28;20035;-70
2023/05/10 07:08:07;;;;;;;0.52;0.52;;;;;;;16.13;52.97;99685.19;5134237;27;20039;-69
2023/05/10 07:10:36;;;;;;;1.07;0.97;;;;;;;16.33;52.96;99687.31;5138801;27;20373;-70
2023/05/10 07:13:05;;;;;;;0.40;0.40;;;;;;;16.37;53.06;99699.22;5138405;27;20039;-70
2023/05/10 07:15:34;;;;;;;0.63;0.63;;;;;;;16.46;52.41;99691.28;5138438;27;20039;-71
2023/05/10 07:18:05;;;;;;;0.50;0.50;;;;;;;16.42;52.26;99697.38;5120129;27;20031;-71
2023/05/10 07:20:35;;;;;;;0.68;0.68;;;;;;;16.21;52.48;99691.03;5138490;27;20130;-70
2023/05/10 07:23:05;;;;;;;0.75;0.68;;;;;;;16.18;52.83;99695.38;5138609;27;20115;-68
2023/05/10 07:25:34;;;;;;;0.40;0.40;;;;;;;16.17;53.12;99697.13;5138171;27;20112;-71
2023/05/10 07:28:02;;;;;;;0.52;0.52;;;;;;;16.15;52.67;99698.06;5138003;27;20043;-70
2023/05/10 07:30:31;;;;;;;0.43;0.43;;;;;;;16.17;53.08;99696.28;5138102;27;20035;-72
2023/05/10 07:33:00;;;;;;;0.70;0.70;;;;;;;16.44;52.88;99695.59;5138335;27;20549;-69
2023/05/10 07:35:29;;;;;;;0.50;0.50;;;;;;;16.71;52.58;99700.97;5137807;27;20279;-71
2023/05/10 07:37:58;;;;;;;0.87;0.60;;;;;;;16.77;52.08;99694.84;5138177;27;20050;-69
2023/05/10 07:40:28;;;;;;;0.73;0.67;;;;;;;16.51;52.46;99705.78;5138299;27;20446;-70
2023/05/10 07:42:57;;;;;;;1.15;1.05;;;;;;;16.30;52.43;99688.22;5137979;27;20674;-70
2023/05/10 07:45:26;;;;;;;0.67;0.60;;;;;;;16.51;52.71;99692.88;5138127;27;20067;-70
2023/05/10 07:47:55;;;;;;;0.77;0.73;;;;;;;16.38;52.96;99690.63;5137692;27;20080;-70
2023/05/10 07:50:24;;;;;;;0.40;0.40;;;;;;;16.43;53.03;99693.94;5137250;27;20273;-69
2023/05/10 07:52:53;;;;;;;0.80;0.80;;;;;;;16.63;52.85;99694.31;5137716;27;20031;-71
2023/05/10 07:55:22;;;;;;;0.60;0.60;;;;;;;16.72;52.57;99691.53;5137087;27;20039;-69
2023/05/10 07:57:52;;;;;;;1.15;1.05;;;;;;;16.50;53.00;99690.31;5137806;27;20369;-69
2023/05/10 08:00:21;;;;;;;0.77;0.77;;;;;;;16.43;53.26;99693.94;5137329;27;20049;-70
2023/05/10 08:02:50;;;;;;;0.50;0.50;;;;;;;16.40;52.58;99709.47;5138065;27;20088;-71
2023/05/10 08:05:19;;;;;;;0.50;0.50;;;;;;;16.44;53.03;99696.47;5137523;27;20051;-69
2023/05/10 08:07:48;;;;;;;0.80;0.80;;;;;;;16.64;52.86;99683.13;5137920;27;20457;-70
2023/05/10 08:10:17;;;;;;;3.17;1.63;;;;;;;16.57;54.03;99702.22;5137683;27;20080;-71
2023/05/10 08:12:46;;;;;;;0.93;0.90;;;;;;;16.41;53.11;99700.84;5137287;27;20069;-69
2023/05/10 08:15:16;;;;;;;0.90;0.60;;;;;;;16.32;53.54;99703.63;5137638;27;20039;-70
2023/05/10 08:17:45;;;;;;;0.55;0.50;;;;;;;16.47;53.73;99711.00;5137144;27;20092;-70
2023/05/10 08:20:16;;;;;;;2.13;1.27;;;;;;;16.64;52.77;99712.31;5118025;27;20401;-70
2023/05/10 08:22:46;;;;;;;0.55;0.55;;;;;;;16.78;53.41;99706.81;5137194;27;20481;-67
2023/05/10 08:25:17;;;;;;;1.30;0.63;;;;;;;16.81;52.84;99717.06;5137046;27;20043;-67
2023/05/10 08:27:46;;;;;;;0.52;0.52;;;;;;;16.71;52.82;99710.44;5136999;27;20070;-71
2023/05/10 08:30:17;;;;;;;0.80;0.63;;;;;;;16.78;52.42;99706.81;5137210;27;20118;-67
2023/05/10 08:32:46;;;;;;;12.02;1.73;;;;;;;16.80;53.42;99709.34;5136641;27;20051;-70
2023/05/10 08:35:15;;;;;;;0.67;0.67;;;;;;;17.00;52.90;99720.84;5136760;27;20130;-69
2023/05/10 08:37:45;;;;;;;0.63;0.63;;;;;;;17.07;53.13;99718.97;5136489;27;20298;-71
2023/05/10 08:40:15;;;;;;;0.70;0.70;;;;;;;17.21;52.49;99716.84;5137095;27;20092;-66
2023/05/10 08:42:51;;;;;;;1.05;1.00;;;;;;;17.20;51.74;99716.00;5136773;27;20089;-69
2023/05/10 08:45:24;;;;;;;0.32;0.32;;;;;;;17.43;51.94;99718.81;5137060;27;20377;-71
2023/05/10 08:47:54;;;;;;;1.25;0.63;;;;;;;17.30;52.37;99720.03;5137009;27;20041;-68
2023/05/10 08:50:23;;;;;;;0.82;0.82;;;;;;;17.06;51.84;99718.09;5136538;27;20047;-70
2023/05/10 08:52:56;;;;;;;0.82;0.82;;;;;;;17.14;52.25;99718.75;5136733;27;20096;-70
2023/05/10 08:55:25;;;;;;;0.50;0.50;;;;;;;17.11;51.94;99717.97;5136474;27;20043;-70
2023/05/10 08:57:54;;;;;;;0.60;0.60;;;;;;;17.08;51.71;99706.03;5136972;27;20404;-70
2023/05/10 09:00:25;;;;;;;12.88;1.35;;;;;;;17.26;51.41;99709.84;5136310;27;20279;-68
2023/05/10 09:02:55;;;;;;;0.95;0.93;;;;;;;17.07;52.63;99714.66;5136440;27;20047;-72
2023/05/10 09:05:24;;;;;;;0.40;0.40;;;;;;;17.01;52.81;99719.94;5136568;27;20042;-71
2023/05/10 09:07:53;;;;;;;0.60;0.60;;;;;;;16.80;52.01;99720.50;5136966;27;20050;-69
2023/05/10 09:10:22;;;;;;;1.02;0.90;;;;;;;16.78;52.38;99719.72;5136537;27;20035;-72
2023/05/10 09:12:52;;;;;;;0.50;0.50;;;;;;;16.83;52.28;99717.84;5136488;27;20493;-72
2023/05/10 09:15:21;;;;;;;1.80;0.82;;;;;;;16.82;52.37;99708.41;5136241;27;20493;-71
2023/05/10 09:17:51;;;;;;;0.60;0.60;;;;;;;16.66;52.43;99701.97;5136143;27;20035;-68
2023/05/10 09:20:22;;;;;;;0.88;0.88;;;;;;;17.06;53.31;99707.78;5135946;27;20078;-70
2023/05/10 09:22:51;;;;;;;1.75;0.70;;;;;;;17.32;52.45;99682.13;5136221;27;20416;-72
2023/05/10 09:25:22;;;;;;;1.10;0.77;;;;;;;17.27;51.84;99717.56;5135883;27;20070;-70
2023/05/10 09:27:51;;;;;;;0.50;0.50;;;;;;;17.21;52.10;99709.97;5117522;27;20043;-69
2023/05/10 09:30:27;;;;;;;0.40;0.40;;;;;;;17.35;51.84;99713.00;5135905;27;20035;-71
2023/05/10 09:32:59;;;;;;;0.50;0.50;;;;;;;17.31;51.80;99713.13;5135736;27;20051;-70
2023/05/10 09:35:30;;;;;;;0.60;0.60;;;;;;;17.68;51.37;99707.81;5117353;27;20111;-71
2023/05/10 09:38:02;;;;;;;0.50;0.50;;;;;;;17.80;51.70;99707.47;5135808;27;20062;-68
2023/05/10 09:40:31;;;;;;;1.95;1.55;;;;;;;17.66;51.66;99696.72;5135954;27;20124;-68
2023/05/10 09:43:02;;;;;;;0.80;0.70;;;;;;;17.78;51.68;99701.50;5135484;27;20035;-70
2023/05/10 09:45:33;;;;;;;0.70;0.70;;;;;;;17.80;50.98;99702.31;5135458;27;20043;-67
2023/05/10 09:48:07;;;;;;;1.02;0.93;;;;;;;17.89;51.24;99705.47;5135867;27;20043;-68
2023/05/10 09:50:37;;;;;;;2.05;1.08;;;;;;;18.09;50.52;99697.09;5117094;27;20035;-69
2023/05/10 09:53:06;;;;;;;0.68;0.65;;;;;;;18.16;50.07;99703.78;5135617;27;20459;-70
2023/05/10 09:55:46;;;;;;;0.85;0.85;;;;;;;18.23;49.86;99702.69;5135321;27;20043;-70
2023/05/10 09:58:15;;;;;;;;;;;;;;;18.32;49.40;99706.72;5117326;27;20039;-70
2023/05/10 10:00:45;;;;;;;1.05;0.88;;;;;;;18.30;49.23;99706.78;5135156;27;20430;-69
2023/05/10 10:03:16;;;;;;;1.40;1.05;;;;;;;17.96;50.02;99693.19;5135223;27;20051;-68
2023/05/10 10:05:47;;;;;;;0.57;0.57;;;;;;;17.63;50.54;99696.78;5135147;27;20055;-70
2023/05/10 10:08:17;;;;;;;0.52;0.52;;;;;;;17.61;51.29;99696.00;5135080;27;20047;-71
2023/05/10 10:10:48;;;;;;;0.50;0.50;;;;;;;17.52;51.01;99693.66;5135116;27;20047;-70
2023/05/10 10:13:20;;;;;;;0.40;0.40;;;;;;;17.54;51.53;99704.81;5134997;27;20137;-73
2023/05/10 10:15:50;;;;;;;0.40;0.40;;;;;;;17.44;51.32;99678.38;5134964;27;20492;-71
2023/05/10 10:18:26;;;;;;;0.50;0.50;;;;;;;17.52;50.73;99691.91;5134917;27;20054;-70
2023/05/10 10:20:57;;;;;;;0.73;0.73;;;;;;;17.46;51.38;99691.22;5134961;27;20039;-69
2023/05/10 10:23:26;;;;;;;0.50;0.50;;;;;;;17.52;51.31;99685.91;5134876;27;20047;-71
2023/05/10 10:25:56;;;;;;;0.50;0.50;;;;;;;17.74;51.18;99684.41;5135072;27;20396;-69
2023/05/10 10:28:28;;;;;;;;;;;;;;;17.60;49.99;99689.13;5135201;27;20032;-75
2023/05/10 10:31:04;;;;;;;0.40;0.40;;;;;;;17.60;50.65;99694.28;5134722;27;19919;-71
2023/05/10 10:33:50;;;;;;;0.60;0.60;;;;;;;17.63;50.52;99678.72;5134792;27;20442;-72
2023/05/10 10:36:20;;;;;;;0.60;0.60;;;;;;;17.74;50.03;99693.00;5134571;27;20115;-69
2023/05/10 10:39:00;;;;;;;0.60;0.60;;;;;;;17.62;49.97;99692.50;5134892;27;20043;-69
2023/05/10 10:41:33;;;;;;;1.05;0.95;;;;;;;17.52;49.72;99671.28;5134738;27;20396;-70
2023/05/10 10:44:30;;;;;;;0.50;0.50;;;;;;;18.06;49.43;99684.28;5134561;27;20093;-70
2023/05/10 10:47:08;;;;;;;0.57;0.57;;;;;;;18.47;49.75;99676.09;5124694;27;20043;-69
2023/05/10 10:49:51;;;;;;;0.45;0.45;;;;;;;18.58;49.68;99694.66;5134841;27;20066;-71
2023/05/10 10:52:28;;;;;;;0.68;0.60;;;;;;;18.38;49.47;99678.94;5134728;28;20051;-71
2023/05/10 10:55:03;;;;;;;0.88;0.88;;;;;;;18.54;49.65;99682.75;5134805;28;20039;-69
2023/05/10 10:57:35;;;;;;;0.77;0.75;;;;;;;18.79;49.08;99684.53;5134877;28;20481;-72
2023/05/10 11:00:28;;;;;;;0.57;0.57;;;;;;;19.10;48.48;99677.38;5134596;28;20043;-71
2023/05/10 11:03:04;;;;;;;0.60;0.60;;;;;;;19.03;48.36;99676.72;5134333;28;20035;-71
2023/05/10 11:05:40;;;;;;;0.50;0.50;;;;;;;18.79;48.24;99675.00;5134286;28;20053;-69
2023/05/10 11:08:17;;;;;;;1.33;0.88;;;;;;;18.61;48.67;99668.72;5134325;28;20047;-68
2023/05/10 11:11:03;;;;;;;1.83;0.93;;;;;;;18.58;47.73;99668.81;5134227;28;20046;-70
2023/05/10 11:13:33;;;;;;;0.77;0.73;;;;;;;18.59;47.11;99674.84;5134909;28;20117;-69
2023/05/10 11:16:21;;;;;;;0.50;0.50;;;;;;;18.52;47.16;99669.00;5134652;28;20071;-70
2023/05/10 11:19:01;;;;;;;0.60;0.60;;;;;;;18.61;48.36;99668.72;5134257;28;20557;-69
2023/05/10 11:21:33;;;;;;;0.40;0.40;;;;;;;19.13;48.16;99667.75;5115967;28;20130;-69
2023/05/10 11:24:05;;;;;;;0.43;0.43;;;;;;;19.43;46.76;99665.84;5116037;28;20047;-70
2023/05/10 11:26:36;;;;;;;7.28;1.80;;;;;;;19.29;46.39;99665.47;5134101;28;20055;-69
2023/05/10 11:29:06;;;;;;;0.50;0.50;;;;;;;18.86;47.08;99662.72;5134467;28;20039;-68
2023/05/10 11:31:35;;;;;;;2.00;0.87;;;;;;;18.91;47.31;99655.66;5134001;28;20063;-70
2023/05/10 11:34:04;;;;;;;1.15;1.05;;;;;;;18.91;47.15;99660.81;5134412;28;20051;-75
2023/05/10 11:36:36;;;;;;;0.77;0.70;;;;;;;18.67;47.19;99655.56;5133771;28;20120;-70
2023/05/10 11:39:06;;;;;;;0.65;0.65;;;;;;;19.12;47.53;99657.47;5133978;28;20054;-69
2023/05/10 11:41:35;;;;;;;7.40;1.15;;;;;;;19.07;47.52;99662.81;5134021;28;20129;-69
2023/05/10 11:44:04;;;;;;;0.40;0.40;;;;;;;19.19;47.64;99657.19;5115846;28;20074;-70
2023/05/10 11:46:33;;;;;;;0.52;0.52;;;;;;;19.47;47.13;99656.22;5133924;28;20122;-72
2023/05/10 11:49:03;;;;;;;0.50;0.50;;;;;;;19.66;47.01;99646.84;5115698;28;20518;-69
2023/05/10 11:51:37;;;;;;;0.50;0.50;;;;;;;19.77;46.80;99644.72;5134186;28;20047;-70
2023/05/10 11:54:08;;;;;;;0.52;0.52;;;;;;;19.86;46.18;99632.25;5133919;28;20050;-71